Time,TemperatureF,DewpointF,PressureIn,WindDirection,WindDirectionDegrees,WindSpeedMPH,WindSpeedGustMPH,Humidity,HourlyPrecipIn,Conditions,Clouds,dailyrainin,SolarRadiationWatts/m^2,SoftwareType,DateUTC
2013-01-11 00:22:00,10.0,8.0,-100.00,NNW,337,1.0,3.0,89,-99.99,,,-99.99,0.000000,,2013-01-11 08:22:00,
2013-01-11 00:30:00,10.0,8.0,-100.00,NNW,335,2.0,4.0,89,-99.99,,,-99.99,0.000000,,2013-01-11 08:30:00,
2013-01-11 01:22:00,10.0,8.0,-100.00,NNW,335,2.0,4.0,89,-99.99,,,-99.99,0.000000,,2013-01-11 09:22:00,
2013-01-11 01:30:00,10.0,8.0,-100.00,NNW,338,1.0,2.0,89,-99.99,,,-99.99,0.000000,,2013-01-11 09:30:00,
2013-01-11 02:22:00,10.0,8.0,-100.00,NNW,338,1.0,2.0,89,-99.99,,,-99.99,0.000000,,2013-01-11 10:22:00,
2013-01-11 02:30:00,11.0,8.0,-100.00,NNW,333,1.0,3.0,89,-99.99,,,-99.99,0.000000,,2013-01-11 10:30:00,
2013-01-11 03:22:00,11.0,8.0,-100.00,NNW,333,1.0,3.0,89,-99.99,,,-99.99,0.000000,,2013-01-11 11:22:00,
2013-01-11 03:30:00,11.0,8.0,-100.00,NNW,342,1.0,5.0,89,-99.99,,,-99.99,0.000000,,2013-01-11 11:30:00,
2013-01-11 04:22:00,11.0,8.0,-100.00,NNW,342,1.0,5.0,89,-99.99,,,-99.99,0.000000,,2013-01-11 12:22:00,
2013-01-11 04:30:00,11.0,8.0,-100.00,NNW,337,1.0,4.0,89,-99.99,,,-99.99,0.000000,,2013-01-11 12:30:00,
2013-01-11 05:22:00,11.0,8.0,-100.00,NNW,337,1.0,4.0,89,-99.99,,,-99.99,0.000000,,2013-01-11 13:22:00,
2013-01-11 05:30:00,10.0,8.0,-100.00,NNW,331,2.0,5.0,89,-99.99,,,-99.99,0.000000,,2013-01-11 13:30:00,
2013-01-11 06:22:00,10.0,8.0,-100.00,NNW,331,2.0,5.0,89,-99.99,,,-99.99,0.000000,,2013-01-11 14:22:00,
2013-01-11 06:30:00,10.0,7.0,-100.00,NNW,343,1.0,5.0,88,-99.99,,,-99.99,0.000000,,2013-01-11 14:30:00,
2013-01-11 07:23:00,10.0,7.0,-100.00,NNW,343,1.0,5.0,88,-99.99,,,-99.99,0.000000,,2013-01-11 15:23:00,
2013-01-11 07:30:00,9.0,6.0,-100.00,NNW,341,1.0,3.0,88,-99.99,,,-99.99,2.000000,,2013-01-11 15:30:00,
2013-01-11 08:22:00,9.0,6.0,-100.00,NNW,341,1.0,3.0,88,-99.99,,,-99.99,2.000000,,2013-01-11 16:22:00,
2013-01-11 08:30:00,10.0,7.0,-100.00,NNW,331,1.0,2.0,88,-99.99,,,-99.99,30.000000,,2013-01-11 16:30:00,
2013-01-11 09:22:00,10.0,7.0,-100.00,NNW,331,1.0,2.0,88,-99.99,,,-99.99,30.000000,,2013-01-11 17:22:00,
2013-01-11 09:30:00,11.0,9.0,-100.00,West,280,1.0,3.0,88,-99.99,,,-99.99,56.000000,,2013-01-11 17:30:00,
2013-01-11 10:23:00,11.0,9.0,-100.00,West,280,1.0,3.0,88,-99.99,,,-99.99,56.000000,,2013-01-11 18:23:00,
2013-01-11 10:30:00,14.0,12.0,-100.00,North,5,2.0,6.0,89,-99.99,,,-99.99,122.000000,,2013-01-11 18:30:00,
2013-01-11 11:22:00,14.0,12.0,-100.00,North,5,2.0,6.0,89,-99.99,,,-99.99,122.000000,,2013-01-11 19:22:00,
2013-01-11 11:30:00,16.0,13.0,-100.00,NNW,330,2.0,5.0,89,-99.99,,,-99.99,136.000000,,2013-01-11 19:30:00,
2013-01-11 12:22:00,16.0,13.0,-100.00,NNW,330,2.0,5.0,89,-99.99,,,-99.99,136.000000,,2013-01-11 20:22:00,
2013-01-11 12:30:00,15.0,12.0,-100.00,NW,319,2.0,6.0,90,-99.99,,,-99.99,99.000000,,2013-01-11 20:30:00,
2013-01-11 13:23:00,15.0,12.0,-100.00,NW,319,2.0,6.0,90,-99.99,,,-99.99,99.000000,,2013-01-11 21:23:00,
2013-01-11 13:30:00,15.0,12.0,-100.00,NW,312,2.0,4.0,88,-99.99,,,-99.99,67.000000,,2013-01-11 21:30:00,
2013-01-11 14:22:00,15.0,12.0,-100.00,NW,312,2.0,4.0,88,-99.99,,,-99.99,67.000000,,2013-01-11 22:22:00,
2013-01-11 14:30:00,14.0,12.0,-100.00,NW,318,1.0,4.0,89,-99.99,,,-99.99,42.000000,,2013-01-11 22:30:00,
2013-01-11 15:22:00,14.0,12.0,-100.00,NW,318,1.0,4.0,89,-99.99,,,-99.99,42.000000,,2013-01-11 23:22:00,
2013-01-11 15:30:00,14.0,12.0,-100.00,NNW,328,2.0,5.0,90,-99.99,,,-99.99,26.000000,,2013-01-11 23:30:00,
2013-01-11 16:22:00,14.0,12.0,-100.00,NNW,328,2.0,5.0,90,-99.99,,,-99.99,26.000000,,2013-01-12 00:22:00,
2013-01-11 16:30:00,13.0,11.0,-100.00,NW,326,2.0,5.0,90,-99.99,,,-99.99,13.000000,,2013-01-12 00:30:00,
2013-01-11 17:22:00,13.0,11.0,-100.00,NW,326,2.0,5.0,90,-99.99,,,-99.99,13.000000,,2013-01-12 01:22:00,
2013-01-11 17:30:00,12.0,10.0,-100.00,NNW,332,2.0,4.0,89,-99.99,,,-99.99,0.000000,,2013-01-12 01:30:00,
2013-01-11 18:22:00,12.0,10.0,-100.00,NNW,332,2.0,4.0,89,-99.99,,,-99.99,0.000000,,2013-01-12 02:22:00,
2013-01-11 18:30:00,12.0,9.0,-100.00,NNW,335,1.0,4.0,90,-99.99,,,-99.99,0.000000,,2013-01-12 02:30:00,
2013-01-11 19:22:00,12.0,9.0,-100.00,NNW,335,1.0,4.0,90,-99.99,,,-99.99,0.000000,,2013-01-12 03:22:00,
2013-01-11 19:30:00,11.0,8.0,-100.00,North,3,2.0,6.0,89,-99.99,,,-99.99,0.000000,,2013-01-12 03:30:00,
2013-01-11 20:22:00,11.0,8.0,-100.00,North,3,2.0,6.0,89,-99.99,,,-99.99,0.000000,,2013-01-12 04:22:00,
2013-01-11 20:30:00,10.0,7.0,-100.00,SSE,147,2.0,4.0,89,-99.99,,,-99.99,0.000000,,2013-01-12 04:30:00,
2013-01-11 21:22:00,10.0,7.0,-100.00,SSE,147,2.0,4.0,89,-99.99,,,-99.99,0.000000,,2013-01-12 05:22:00,
2013-01-11 21:30:00,9.0,7.0,-100.00,ESE,103,2.0,6.0,88,-99.99,,,-99.99,0.000000,,2013-01-12 05:30:00,
2013-01-11 22:22:00,9.0,7.0,-100.00,ESE,103,2.0,6.0,88,-99.99,,,-99.99,0.000000,,2013-01-12 06:22:00,
2013-01-11 22:30:00,9.0,6.0,-100.00,ENE,68,5.0,8.0,88,-99.99,,,-99.99,0.000000,,2013-01-12 06:30:00,
2013-01-11 23:22:00,9.0,6.0,-100.00,ENE,68,5.0,8.0,88,-99.99,,,-99.99,0.000000,,2013-01-12 07:22:00,
2013-01-11 23:30:00,7.0,4.0,-100.00,East,79,7.0,10.0,87,-99.99,,,-99.99,0.000000,,2013-01-12 07:30:00,